sensor_id;sensor_type;location;lat;lon;timestamp;P1;durP1;ratioP1;P2;durP2;ratioP2
62584;SDS011;48643;51.670;5.808;2023-02-01T00:00:15;4.82;;;2.03;;
62584;SDS011;48643;51.670;5.808;2023-02-01T00:02:42;6.13;;;1.70;;
62584;SDS011;48643;51.670;5.808;2023-02-01T00:05:09;5.10;;;2.03;;
62584;SDS011;48643;51.670;5.808;2023-02-01T00:07:36;2.83;;;1.45;;
62584;SDS011;48643;51.670;5.808;2023-02-01T00:10:04;4.57;;;1.73;;
62584;SDS011;48643;51.670;5.808;2023-02-01T00:12:31;5.60;;;1.98;;
62584;SDS011;48643;51.670;5.808;2023-02-01T00:14:58;4.45;;;2.00;;
62584;SDS011;48643;51.670;5.808;2023-02-01T00:17:25;7.80;;;2.05;;
62584;SDS011;48643;51.670;5.808;2023-02-01T00:19:52;5.13;;;1.65;;
62584;SDS011;48643;51.670;5.808;2023-02-01T00:22:19;3.38;;;1.75;;
62584;SDS011;48643;51.670;5.808;2023-02-01T00:24:46;3.90;;;1.77;;
62584;SDS011;48643;51.670;5.808;2023-02-01T00:27:12;4.90;;;1.80;;
62584;SDS011;48643;51.670;5.808;2023-02-01T00:29:44;5.53;;;1.90;;
62584;SDS011;48643;51.670;5.808;2023-02-01T00:32:11;3.13;;;1.70;;
62584;SDS011;48643;51.670;5.808;2023-02-01T00:34:38;6.05;;;1.90;;
62584;SDS011;48643;51.670;5.808;2023-02-01T00:37:05;5.55;;;1.80;;
62584;SDS011;48643;51.670;5.808;2023-02-01T00:39:31;4.60;;;1.67;;
62584;SDS011;48643;51.670;5.808;2023-02-01T00:41:59;4.20;;;1.70;;
62584;SDS011;48643;51.670;5.808;2023-02-01T00:44:27;4.60;;;1.60;;
62584;SDS011;48643;51.670;5.808;2023-02-01T00:46:54;4.70;;;1.88;;
62584;SDS011;48643;51.670;5.808;2023-02-01T00:49:21;5.93;;;1.90;;
62584;SDS011;48643;51.670;5.808;2023-02-01T00:51:48;3.63;;;1.60;;
62584;SDS011;48643;51.670;5.808;2023-02-01T00:54:14;4.28;;;1.70;;
62584;SDS011;48643;51.670;5.808;2023-02-01T00:56:41;2.72;;;1.70;;
62584;SDS011;48643;51.670;5.808;2023-02-01T00:59:10;4.88;;;1.70;;
62584;SDS011;48643;51.670;5.808;2023-02-01T01:01:39;4.88;;;1.58;;
62584;SDS011;48643;51.670;5.808;2023-02-01T01:04:06;5.68;;;1.80;;
62584;SDS011;48643;51.670;5.808;2023-02-01T01:06:33;5.00;;;1.52;;
62584;SDS011;48643;51.670;5.808;2023-02-01T01:09:03;4.85;;;1.67;;
62584;SDS011;48643;51.670;5.808;2023-02-01T01:11:32;4.28;;;1.60;;
62584;SDS011;48643;51.670;5.808;2023-02-01T01:14:01;4.20;;;1.80;;
62584;SDS011;48643;51.670;5.808;2023-02-01T01:16:28;6.68;;;1.80;;
62584;SDS011;48643;51.670;5.808;2023-02-01T01:18:56;4.03;;;1.60;;
62584;SDS011;48643;51.670;5.808;2023-02-01T01:21:24;3.80;;;1.95;;
62584;SDS011;48643;51.670;5.808;2023-02-01T01:23:51;3.63;;;1.70;;
62584;SDS011;48643;51.670;5.808;2023-02-01T01:26:19;4.20;;;1.33;;
62584;SDS011;48643;51.670;5.808;2023-02-01T01:28:50;5.90;;;1.98;;
62584;SDS011;48643;51.670;5.808;2023-02-01T01:31:18;3.50;;;1.67;;
62584;SDS011;48643;51.670;5.808;2023-02-01T01:33:49;2.67;;;1.63;;
62584;SDS011;48643;51.670;5.808;2023-02-01T01:36:17;4.53;;;1.73;;
62584;SDS011;48643;51.670;5.808;2023-02-01T01:38:44;3.33;;;1.73;;
62584;SDS011;48643;51.670;5.808;2023-02-01T01:41:12;5.75;;;1.63;;
62584;SDS011;48643;51.670;5.808;2023-02-01T01:46:26;3.95;;;1.70;;
62584;SDS011;48643;51.670;5.808;2023-02-01T01:51:37;3.90;;;1.77;;
62584;SDS011;48643;51.670;5.808;2023-02-01T01:54:09;3.78;;;1.50;;
62584;SDS011;48643;51.670;5.808;2023-02-01T01:56:39;2.28;;;1.40;;
62584;SDS011;48643;51.670;5.808;2023-02-01T01:59:07;5.78;;;1.65;;
62584;SDS011;48643;51.670;5.808;2023-02-01T02:01:35;4.18;;;1.70;;
62584;SDS011;48643;51.670;5.808;2023-02-01T02:04:02;3.60;;;1.33;;
62584;SDS011;48643;51.670;5.808;2023-02-01T02:06:32;3.35;;;1.33;;
62584;SDS011;48643;51.670;5.808;2023-02-01T02:09:14;3.75;;;1.60;;
62584;SDS011;48643;51.670;5.808;2023-02-01T02:11:41;4.53;;;1.50;;
62584;SDS011;48643;51.670;5.808;2023-02-01T02:14:09;4.93;;;1.90;;
62584;SDS011;48643;51.670;5.808;2023-02-01T02:27:58;3.60;;;1.70;;
62584;SDS011;48643;51.670;5.808;2023-02-01T02:30:32;4.75;;;1.88;;
62584;SDS011;48643;51.670;5.808;2023-02-01T02:33:29;6.85;;;1.80;;
62584;SDS011;48643;51.670;5.808;2023-02-01T02:39:29;5.35;;;1.80;;
62584;SDS011;48643;51.670;5.808;2023-02-01T02:45:07;4.68;;;1.63;;
62584;SDS011;48643;51.670;5.808;2023-02-01T02:47:56;3.90;;;1.50;;
62584;SDS011;48643;51.670;5.808;2023-02-01T02:50:38;4.53;;;1.70;;
62584;SDS011;48643;51.670;5.808;2023-02-01T02:56:39;4.10;;;1.48;;
62584;SDS011;48643;51.670;5.808;2023-02-01T02:59:25;6.60;;;1.42;;
62584;SDS011;48643;51.670;5.808;2023-02-01T03:02:11;7.20;;;1.77;;
62584;SDS011;48643;51.670;5.808;2023-02-01T03:04:58;3.92;;;1.40;;
62584;SDS011;48643;51.670;5.808;2023-02-01T03:10:24;6.07;;;1.77;;
62584;SDS011;48643;51.670;5.808;2023-02-01T03:12:59;3.95;;;1.50;;
62584;SDS011;48643;51.670;5.808;2023-02-01T03:18:19;4.32;;;1.40;;
62584;SDS011;48643;51.670;5.808;2023-02-01T03:21:09;5.82;;;1.65;;
62584;SDS011;48643;51.670;5.808;2023-02-01T03:23:39;3.35;;;1.42;;
62584;SDS011;48643;51.670;5.808;2023-02-01T03:26:07;4.72;;;1.38;;
62584;SDS011;48643;51.670;5.808;2023-02-01T03:28:36;3.83;;;1.42;;
62584;SDS011;48643;51.670;5.808;2023-02-01T03:31:08;2.45;;;1.50;;
62584;SDS011;48643;51.670;5.808;2023-02-01T03:33:35;5.32;;;1.58;;
62584;SDS011;48643;51.670;5.808;2023-02-01T03:41:37;3.70;;;1.38;;
62584;SDS011;48643;51.670;5.808;2023-02-01T03:44:20;3.25;;;1.63;;
62584;SDS011;48643;51.670;5.808;2023-02-01T03:46:57;3.55;;;1.60;;
62584;SDS011;48643;51.670;5.808;2023-02-01T03:49:40;4.03;;;1.40;;
62584;SDS011;48643;51.670;5.808;2023-02-01T03:52:10;3.60;;;1.30;;
62584;SDS011;48643;51.670;5.808;2023-02-01T03:54:43;5.57;;;1.48;;
62584;SDS011;48643;51.670;5.808;2023-02-01T03:57:12;3.72;;;1.58;;
62584;SDS011;48643;51.670;5.808;2023-02-01T03:59:41;5.28;;;1.70;;
62584;SDS011;48643;51.670;5.808;2023-02-01T04:02:10;4.43;;;1.50;;
62584;SDS011;48643;51.670;5.808;2023-02-01T04:04:37;4.78;;;1.70;;
62584;SDS011;48643;51.670;5.808;2023-02-01T04:07:04;4.32;;;1.73;;
62584;SDS011;48643;51.670;5.808;2023-02-01T04:09:31;5.25;;;1.70;;
62584;SDS011;48643;51.670;5.808;2023-02-01T04:11:58;6.38;;;1.60;;
62584;SDS011;48643;51.670;5.808;2023-02-01T04:14:24;3.80;;;1.25;;
62584;SDS011;48643;51.670;5.808;2023-02-01T04:16:51;3.78;;;1.25;;
62584;SDS011;48643;51.670;5.808;2023-02-01T04:19:18;4.45;;;1.70;;
62584;SDS011;48643;51.670;5.808;2023-02-01T04:21:45;4.70;;;1.50;;
62584;SDS011;48643;51.670;5.808;2023-02-01T04:24:12;4.80;;;1.45;;
62584;SDS011;48643;51.670;5.808;2023-02-01T04:26:39;3.25;;;1.40;;
62584;SDS011;48643;51.670;5.808;2023-02-01T04:29:05;2.63;;;1.50;;
62584;SDS011;48643;51.670;5.808;2023-02-01T04:31:34;6.53;;;1.77;;
62584;SDS011;48643;51.670;5.808;2023-02-01T04:34:02;4.07;;;1.38;;
62584;SDS011;48643;51.670;5.808;2023-02-01T04:36:29;4.00;;;1.58;;
62584;SDS011;48643;51.670;5.808;2023-02-01T04:38:56;5.78;;;1.75;;
62584;SDS011;48643;51.670;5.808;2023-02-01T04:41:23;5.85;;;1.58;;
62584;SDS011;48643;51.670;5.808;2023-02-01T04:43:50;2.45;;;1.17;;
62584;SDS011;48643;51.670;5.808;2023-02-01T04:46:18;4.97;;;1.55;;
62584;SDS011;48643;51.670;5.808;2023-02-01T04:48:45;5.38;;;1.30;;
62584;SDS011;48643;51.670;5.808;2023-02-01T04:51:12;3.97;;;1.55;;
62584;SDS011;48643;51.670;5.808;2023-02-01T04:53:39;4.03;;;1.45;;
62584;SDS011;48643;51.670;5.808;2023-02-01T04:56:06;4.40;;;1.42;;
62584;SDS011;48643;51.670;5.808;2023-02-01T04:58:33;4.45;;;1.50;;
62584;SDS011;48643;51.670;5.808;2023-02-01T05:01:01;5.68;;;1.42;;
62584;SDS011;48643;51.670;5.808;2023-02-01T05:03:34;3.67;;;1.55;;
62584;SDS011;48643;51.670;5.808;2023-02-01T05:06:01;7.82;;;1.45;;
62584;SDS011;48643;51.670;5.808;2023-02-01T05:08:30;2.55;;;1.50;;
62584;SDS011;48643;51.670;5.808;2023-02-01T05:10:57;5.07;;;1.50;;
62584;SDS011;48643;51.670;5.808;2023-02-01T05:13:25;3.00;;;1.65;;
62584;SDS011;48643;51.670;5.808;2023-02-01T05:16:10;2.45;;;1.23;;
62584;SDS011;48643;51.670;5.808;2023-02-01T05:18:37;4.45;;;1.30;;
62584;SDS011;48643;51.670;5.808;2023-02-01T05:21:03;7.57;;;1.80;;
62584;SDS011;48643;51.670;5.808;2023-02-01T05:23:30;4.05;;;1.35;;
62584;SDS011;48643;51.670;5.808;2023-02-01T05:25:58;5.95;;;1.50;;
62584;SDS011;48643;51.670;5.808;2023-02-01T05:28:28;4.03;;;1.60;;
62584;SDS011;48643;51.670;5.808;2023-02-01T05:30:55;6.90;;;1.58;;
62584;SDS011;48643;51.670;5.808;2023-02-01T05:33:22;4.88;;;1.48;;
62584;SDS011;48643;51.670;5.808;2023-02-01T05:35:48;2.80;;;1.25;;
62584;SDS011;48643;51.670;5.808;2023-02-01T05:38:16;3.17;;;1.40;;
62584;SDS011;48643;51.670;5.808;2023-02-01T05:40:43;2.85;;;1.35;;
62584;SDS011;48643;51.670;5.808;2023-02-01T05:43:15;5.05;;;1.50;;
62584;SDS011;48643;51.670;5.808;2023-02-01T05:45:42;2.35;;;1.42;;
62584;SDS011;48643;51.670;5.808;2023-02-01T05:48:09;7.82;;;1.60;;
62584;SDS011;48643;51.670;5.808;2023-02-01T05:50:36;5.38;;;1.48;;
62584;SDS011;48643;51.670;5.808;2023-02-01T05:53:07;5.45;;;1.70;;
62584;SDS011;48643;51.670;5.808;2023-02-01T05:55:34;4.80;;;1.60;;
62584;SDS011;48643;51.670;5.808;2023-02-01T05:58:01;2.67;;;1.60;;
62584;SDS011;48643;51.670;5.808;2023-02-01T06:00:27;4.20;;;1.35;;
62584;SDS011;48643;51.670;5.808;2023-02-01T06:02:54;3.58;;;1.40;;
62584;SDS011;48643;51.670;5.808;2023-02-01T06:05:21;4.15;;;1.73;;
62584;SDS011;48643;51.670;5.808;2023-02-01T06:07:48;3.22;;;1.45;;
62584;SDS011;48643;51.670;5.808;2023-02-01T06:10:16;4.13;;;1.42;;
62584;SDS011;48643;51.670;5.808;2023-02-01T06:12:44;4.20;;;1.50;;
62584;SDS011;48643;51.670;5.808;2023-02-01T06:15:11;5.60;;;1.52;;
62584;SDS011;48643;51.670;5.808;2023-02-01T06:17:38;4.72;;;1.55;;
62584;SDS011;48643;51.670;5.808;2023-02-01T06:20:07;4.10;;;1.70;;
62584;SDS011;48643;51.670;5.808;2023-02-01T06:22:37;6.45;;;1.60;;
62584;SDS011;48643;51.670;5.808;2023-02-01T06:25:04;5.10;;;1.58;;
62584;SDS011;48643;51.670;5.808;2023-02-01T06:27:32;3.15;;;1.30;;
62584;SDS011;48643;51.670;5.808;2023-02-01T06:29:59;7.68;;;1.80;;
62584;SDS011;48643;51.670;5.808;2023-02-01T06:32:26;4.55;;;1.50;;
62584;SDS011;48643;51.670;5.808;2023-02-01T06:34:53;4.72;;;1.60;;
62584;SDS011;48643;51.670;5.808;2023-02-01T06:37:21;4.40;;;1.48;;
62584;SDS011;48643;51.670;5.808;2023-02-01T06:39:49;2.67;;;1.35;;
62584;SDS011;48643;51.670;5.808;2023-02-01T06:42:16;7.13;;;1.73;;
62584;SDS011;48643;51.670;5.808;2023-02-01T06:44:42;5.57;;;1.73;;
62584;SDS011;48643;51.670;5.808;2023-02-01T06:47:09;7.60;;;1.70;;
62584;SDS011;48643;51.670;5.808;2023-02-01T06:49:36;5.43;;;1.50;;
62584;SDS011;48643;51.670;5.808;2023-02-01T06:52:03;4.93;;;1.40;;
62584;SDS011;48643;51.670;5.808;2023-02-01T06:54:30;4.82;;;1.63;;
62584;SDS011;48643;51.670;5.808;2023-02-01T06:56:59;3.55;;;1.45;;
62584;SDS011;48643;51.670;5.808;2023-02-01T06:59:26;5.00;;;1.40;;
62584;SDS011;48643;51.670;5.808;2023-02-01T07:01:53;5.00;;;1.58;;
62584;SDS011;48643;51.670;5.808;2023-02-01T07:04:20;3.78;;;1.38;;
62584;SDS011;48643;51.670;5.808;2023-02-01T07:06:46;3.20;;;1.40;;
62584;SDS011;48643;51.670;5.808;2023-02-01T07:09:13;4.85;;;1.40;;
62584;SDS011;48643;51.670;5.808;2023-02-01T07:11:40;4.78;;;1.70;;
62584;SDS011;48643;51.670;5.808;2023-02-01T07:14:10;5.18;;;1.50;;
62584;SDS011;48643;51.670;5.808;2023-02-01T07:16:37;7.38;;;2.03;;
62584;SDS011;48643;51.670;5.808;2023-02-01T07:19:04;5.32;;;1.70;;
62584;SDS011;48643;51.670;5.808;2023-02-01T07:21:31;5.18;;;1.63;;
62584;SDS011;48643;51.670;5.808;2023-02-01T07:23:58;4.75;;;1.65;;
62584;SDS011;48643;51.670;5.808;2023-02-01T07:26:25;5.00;;;1.70;;
62584;SDS011;48643;51.670;5.808;2023-02-01T07:28:52;3.38;;;1.40;;
62584;SDS011;48643;51.670;5.808;2023-02-01T07:31:19;3.17;;;1.52;;
62584;SDS011;48643;51.670;5.808;2023-02-01T07:33:48;5.82;;;1.75;;
62584;SDS011;48643;51.670;5.808;2023-02-01T07:36:18;5.13;;;1.73;;
62584;SDS011;48643;51.670;5.808;2023-02-01T07:38:45;6.03;;;1.60;;
62584;SDS011;48643;51.670;5.808;2023-02-01T07:41:15;4.10;;;1.30;;
62584;SDS011;48643;51.670;5.808;2023-02-01T07:43:42;4.30;;;1.50;;
62584;SDS011;48643;51.670;5.808;2023-02-01T07:46:09;8.02;;;1.90;;
62584;SDS011;48643;51.670;5.808;2023-02-01T07:48:37;7.22;;;1.60;;
62584;SDS011;48643;51.670;5.808;2023-02-01T07:51:05;6.63;;;1.90;;
62584;SDS011;48643;51.670;5.808;2023-02-01T07:53:35;12.32;;;2.00;;
62584;SDS011;48643;51.670;5.808;2023-02-01T07:56:03;9.75;;;2.30;;
62584;SDS011;48643;51.670;5.808;2023-02-01T07:58:30;8.45;;;2.22;;
62584;SDS011;48643;51.670;5.808;2023-02-01T08:00:57;7.22;;;2.25;;
62584;SDS011;48643;51.670;5.808;2023-02-01T08:03:42;8.77;;;2.55;;
62584;SDS011;48643;51.670;5.808;2023-02-01T08:06:09;12.18;;;2.30;;
62584;SDS011;48643;51.670;5.808;2023-02-01T08:08:35;14.27;;;2.42;;
62584;SDS011;48643;51.670;5.808;2023-02-01T08:11:03;11.80;;;2.55;;
62584;SDS011;48643;51.670;5.808;2023-02-01T08:13:32;12.98;;;2.45;;
62584;SDS011;48643;51.670;5.808;2023-02-01T08:16:00;8.93;;;2.30;;
62584;SDS011;48643;51.670;5.808;2023-02-01T08:18:28;9.98;;;2.42;;
62584;SDS011;48643;51.670;5.808;2023-02-01T08:20:55;8.38;;;1.98;;
62584;SDS011;48643;51.670;5.808;2023-02-01T08:23:22;9.13;;;2.13;;
62584;SDS011;48643;51.670;5.808;2023-02-01T08:25:49;7.00;;;2.00;;
62584;SDS011;48643;51.670;5.808;2023-02-01T08:28:15;4.45;;;1.90;;
62584;SDS011;48643;51.670;5.808;2023-02-01T08:30:42;10.10;;;2.03;;
62584;SDS011;48643;51.670;5.808;2023-02-01T08:33:09;8.63;;;2.10;;
62584;SDS011;48643;51.670;5.808;2023-02-01T08:35:37;7.55;;;2.13;;
62584;SDS011;48643;51.670;5.808;2023-02-01T08:38:09;8.82;;;2.35;;
62584;SDS011;48643;51.670;5.808;2023-02-01T08:40:37;5.22;;;2.05;;
62584;SDS011;48643;51.670;5.808;2023-02-01T08:43:04;7.95;;;1.95;;
62584;SDS011;48643;51.670;5.808;2023-02-01T08:45:30;6.85;;;2.03;;
62584;SDS011;48643;51.670;5.808;2023-02-01T08:47:58;5.28;;;1.80;;
62584;SDS011;48643;51.670;5.808;2023-02-01T08:50:25;5.55;;;1.80;;
62584;SDS011;48643;51.670;5.808;2023-02-01T08:52:52;6.35;;;1.90;;
62584;SDS011;48643;51.670;5.808;2023-02-01T08:55:20;7.47;;;1.95;;
62584;SDS011;48643;51.670;5.808;2023-02-01T08:57:47;6.30;;;1.75;;
62584;SDS011;48643;51.670;5.808;2023-02-01T09:00:15;7.03;;;2.00;;
62584;SDS011;48643;51.670;5.808;2023-02-01T09:02:42;8.27;;;2.17;;
62584;SDS011;48643;51.670;5.808;2023-02-01T09:05:09;9.77;;;1.83;;
62584;SDS011;48643;51.670;5.808;2023-02-01T09:07:37;5.60;;;1.98;;
62584;SDS011;48643;51.670;5.808;2023-02-01T09:10:03;3.88;;;1.70;;
62584;SDS011;48643;51.670;5.808;2023-02-01T09:12:31;6.82;;;1.65;;
62584;SDS011;48643;51.670;5.808;2023-02-01T09:14:58;5.68;;;1.60;;
62584;SDS011;48643;51.670;5.808;2023-02-01T09:17:26;6.80;;;1.40;;
62584;SDS011;48643;51.670;5.808;2023-02-01T09:19:54;7.40;;;1.77;;
62584;SDS011;48643;51.670;5.808;2023-02-01T09:22:21;6.18;;;1.73;;
62584;SDS011;48643;51.670;5.808;2023-02-01T09:24:48;3.95;;;1.70;;
62584;SDS011;48643;51.670;5.808;2023-02-01T09:27:15;5.38;;;1.80;;
62584;SDS011;48643;51.670;5.808;2023-02-01T09:29:41;5.93;;;1.52;;
62584;SDS011;48643;51.670;5.808;2023-02-01T09:32:09;3.55;;;1.60;;
62584;SDS011;48643;51.670;5.808;2023-02-01T09:34:36;3.90;;;1.55;;
62584;SDS011;48643;51.670;5.808;2023-02-01T09:37:03;4.90;;;1.70;;
62584;SDS011;48643;51.670;5.808;2023-02-01T09:39:30;5.38;;;1.63;;
62584;SDS011;48643;51.670;5.808;2023-02-01T09:41:59;3.92;;;1.65;;
62584;SDS011;48643;51.670;5.808;2023-02-01T09:47:22;2.78;;;1.30;;
62584;SDS011;48643;51.670;5.808;2023-02-01T09:50:04;4.30;;;1.70;;
62584;SDS011;48643;51.670;5.808;2023-02-01T09:52:40;3.20;;;1.45;;
62584;SDS011;48643;51.670;5.808;2023-02-01T09:55:21;4.93;;;1.55;;
62584;SDS011;48643;51.670;5.808;2023-02-01T09:58:29;3.40;;;1.60;;
62584;SDS011;48643;51.670;5.808;2023-02-01T10:01:08;4.95;;;1.70;;
62584;SDS011;48643;51.670;5.808;2023-02-01T10:03:41;6.25;;;1.80;;
62584;SDS011;48643;51.670;5.808;2023-02-01T10:09:09;4.10;;;1.40;;
62584;SDS011;48643;51.670;5.808;2023-02-01T10:17:20;4.68;;;1.48;;
62584;SDS011;48643;51.670;5.808;2023-02-01T10:20:00;5.85;;;1.55;;
62584;SDS011;48643;51.670;5.808;2023-02-01T10:25:26;4.82;;;1.50;;
62584;SDS011;48643;51.670;5.808;2023-02-01T10:28:04;4.28;;;1.60;;
62584;SDS011;48643;51.670;5.808;2023-02-01T10:30:33;4.03;;;1.55;;
62584;SDS011;48643;51.670;5.808;2023-02-01T10:35:46;6.68;;;1.88;;
62584;SDS011;48643;51.670;5.808;2023-02-01T10:38:30;4.93;;;1.50;;
62584;SDS011;48643;51.670;5.808;2023-02-01T10:41:00;4.97;;;1.48;;
62584;SDS011;48643;51.670;5.808;2023-02-01T10:43:37;5.25;;;1.58;;
62584;SDS011;48643;51.670;5.808;2023-02-01T10:46:06;4.72;;;1.92;;
62584;SDS011;48643;51.670;5.808;2023-02-01T10:48:33;6.57;;;1.90;;
62584;SDS011;48643;51.670;5.808;2023-02-01T10:51:02;4.55;;;1.77;;
62584;SDS011;48643;51.670;5.808;2023-02-01T10:53:48;5.30;;;1.80;;
62584;SDS011;48643;51.670;5.808;2023-02-01T10:56:22;6.95;;;1.50;;
62584;SDS011;48643;51.670;5.808;2023-02-01T10:58:50;8.52;;;1.70;;
62584;SDS011;48643;51.670;5.808;2023-02-01T11:01:19;5.63;;;1.73;;
62584;SDS011;48643;51.670;5.808;2023-02-01T11:03:57;6.88;;;1.50;;
62584;SDS011;48643;51.670;5.808;2023-02-01T11:06:26;4.97;;;1.55;;
62584;SDS011;48643;51.670;5.808;2023-02-01T11:09:17;7.63;;;1.85;;
62584;SDS011;48643;51.670;5.808;2023-02-01T11:14:17;5.38;;;1.80;;
62584;SDS011;48643;51.670;5.808;2023-02-01T11:16:57;5.72;;;1.70;;
62584;SDS011;48643;51.670;5.808;2023-02-01T11:19:26;5.25;;;1.60;;
62584;SDS011;48643;51.670;5.808;2023-02-01T11:21:54;3.75;;;1.45;;
62584;SDS011;48643;51.670;5.808;2023-02-01T11:24:32;4.97;;;1.50;;
62584;SDS011;48643;51.670;5.808;2023-02-01T11:27:02;6.13;;;1.52;;
62584;SDS011;48643;51.670;5.808;2023-02-01T11:29:36;5.10;;;1.85;;
62584;SDS011;48643;51.670;5.808;2023-02-01T11:32:11;5.68;;;1.85;;
62584;SDS011;48643;51.670;5.808;2023-02-01T11:34:43;3.35;;;1.65;;
62584;SDS011;48643;51.670;5.808;2023-02-01T11:39:44;3.92;;;1.52;;
62584;SDS011;48643;51.670;5.808;2023-02-01T11:42:20;6.80;;;1.70;;
62584;SDS011;48643;51.670;5.808;2023-02-01T11:44:47;4.82;;;1.80;;
62584;SDS011;48643;51.670;5.808;2023-02-01T11:47:27;4.38;;;1.67;;
62584;SDS011;48643;51.670;5.808;2023-02-01T11:49:58;4.28;;;1.67;;
62584;SDS011;48643;51.670;5.808;2023-02-01T11:57:59;3.42;;;1.85;;
62584;SDS011;48643;51.670;5.808;2023-02-01T12:06:10;8.68;;;2.10;;
62584;SDS011;48643;51.670;5.808;2023-02-01T12:09:05;6.45;;;1.80;;
62584;SDS011;48643;51.670;5.808;2023-02-01T12:11:41;4.20;;;1.60;;
62584;SDS011;48643;51.670;5.808;2023-02-01T12:33:49;6.18;;;1.80;;
62584;SDS011;48643;51.670;5.808;2023-02-01T12:36:58;4.72;;;1.73;;
62584;SDS011;48643;51.670;5.808;2023-02-01T12:39:56;6.65;;;1.70;;
62584;SDS011;48643;51.670;5.808;2023-02-01T12:45:34;5.18;;;1.80;;
62584;SDS011;48643;51.670;5.808;2023-02-01T12:48:28;3.05;;;1.60;;
62584;SDS011;48643;51.670;5.808;2023-02-01T12:51:10;7.80;;;2.00;;
62584;SDS011;48643;51.670;5.808;2023-02-01T12:53:57;7.25;;;2.20;;
62584;SDS011;48643;51.670;5.808;2023-02-01T12:56:49;3.75;;;1.50;;
62584;SDS011;48643;51.670;5.808;2023-02-01T12:59:24;6.80;;;2.28;;
62584;SDS011;48643;51.670;5.808;2023-02-01T13:02:01;4.97;;;1.70;;
62584;SDS011;48643;51.670;5.808;2023-02-01T13:05:22;10.02;;;2.08;;
62584;SDS011;48643;51.670;5.808;2023-02-01T13:07:29;6.82;;;1.92;;
62584;SDS011;48643;51.670;5.808;2023-02-01T13:10:24;5.03;;;1.67;;
62584;SDS011;48643;51.670;5.808;2023-02-01T13:12:56;3.78;;;1.60;;
62584;SDS011;48643;51.670;5.808;2023-02-01T13:15:48;5.15;;;1.60;;
62584;SDS011;48643;51.670;5.808;2023-02-01T13:18:21;7.53;;;1.80;;
62584;SDS011;48643;51.670;5.808;2023-02-01T13:21:46;6.15;;;1.90;;
62584;SDS011;48643;51.670;5.808;2023-02-01T13:23:52;4.60;;;1.80;;
62584;SDS011;48643;51.670;5.808;2023-02-01T13:26:19;4.78;;;1.63;;
62584;SDS011;48643;51.670;5.808;2023-02-01T13:28:56;5.95;;;1.73;;
62584;SDS011;48643;51.670;5.808;2023-02-01T13:34:31;5.25;;;1.90;;
62584;SDS011;48643;51.670;5.808;2023-02-01T13:43:06;4.93;;;2.00;;
62584;SDS011;48643;51.670;5.808;2023-02-01T13:45:43;6.63;;;1.73;;
62584;SDS011;48643;51.670;5.808;2023-02-01T13:51:06;6.60;;;2.08;;
62584;SDS011;48643;51.670;5.808;2023-02-01T13:53:34;5.00;;;1.98;;
62584;SDS011;48643;51.670;5.808;2023-02-01T13:56:08;4.28;;;1.70;;
62584;SDS011;48643;51.670;5.808;2023-02-01T13:58:41;5.55;;;1.70;;
62584;SDS011;48643;51.670;5.808;2023-02-01T14:06:34;5.10;;;1.65;;
62584;SDS011;48643;51.670;5.808;2023-02-01T14:11:47;5.88;;;2.33;;
62584;SDS011;48643;51.670;5.808;2023-02-01T14:19:22;4.55;;;1.67;;
62584;SDS011;48643;51.670;5.808;2023-02-01T14:21:57;9.18;;;1.85;;
62584;SDS011;48643;51.670;5.808;2023-02-01T14:24:31;3.40;;;1.50;;
62584;SDS011;48643;51.670;5.808;2023-02-01T14:26:59;6.88;;;1.80;;
62584;SDS011;48643;51.670;5.808;2023-02-01T14:29:31;3.58;;;1.40;;
62584;SDS011;48643;51.670;5.808;2023-02-01T14:32:06;4.43;;;1.92;;
62584;SDS011;48643;51.670;5.808;2023-02-01T14:42:31;3.97;;;1.50;;
62584;SDS011;48643;51.670;5.808;2023-02-01T14:47:49;5.57;;;1.70;;
62584;SDS011;48643;51.670;5.808;2023-02-01T14:55:31;4.38;;;1.67;;
62584;SDS011;48643;51.670;5.808;2023-02-01T14:58:50;3.88;;;1.63;;
62584;SDS011;48643;51.670;5.808;2023-02-01T15:01:22;4.90;;;1.48;;
62584;SDS011;48643;51.670;5.808;2023-02-01T15:06:36;7.43;;;1.60;;
62584;SDS011;48643;51.670;5.808;2023-02-01T15:09:07;5.18;;;1.50;;
62584;SDS011;48643;51.670;5.808;2023-02-01T15:14:44;4.93;;;1.38;;
62584;SDS011;48643;51.670;5.808;2023-02-01T15:17:22;6.55;;;1.60;;
62584;SDS011;48643;51.670;5.808;2023-02-01T15:19:58;7.30;;;1.92;;
62584;SDS011;48643;51.670;5.808;2023-02-01T15:22:34;6.85;;;1.67;;
62584;SDS011;48643;51.670;5.808;2023-02-01T15:25:01;6.55;;;1.70;;
62584;SDS011;48643;51.670;5.808;2023-02-01T15:27:29;6.60;;;1.83;;
62584;SDS011;48643;51.670;5.808;2023-02-01T15:35:41;6.28;;;1.70;;
62584;SDS011;48643;51.670;5.808;2023-02-01T15:40:59;5.22;;;1.80;;
62584;SDS011;48643;51.670;5.808;2023-02-01T15:43:28;4.47;;;1.73;;
62584;SDS011;48643;51.670;5.808;2023-02-01T15:45:59;5.00;;;1.42;;
62584;SDS011;48643;51.670;5.808;2023-02-01T15:48:31;4.07;;;1.88;;
62584;SDS011;48643;51.670;5.808;2023-02-01T15:51:02;10.07;;;2.50;;
62584;SDS011;48643;51.670;5.808;2023-02-01T15:53:29;5.07;;;2.20;;
62584;SDS011;48643;51.670;5.808;2023-02-01T15:55:59;11.77;;;3.35;;
62584;SDS011;48643;51.670;5.808;2023-02-01T15:58:27;11.18;;;3.20;;
62584;SDS011;48643;51.670;5.808;2023-02-01T16:00:55;11.80;;;3.55;;
62584;SDS011;48643;51.670;5.808;2023-02-01T16:03:40;11.43;;;3.58;;
62584;SDS011;48643;51.670;5.808;2023-02-01T16:11:26;13.38;;;4.60;;
62584;SDS011;48643;51.670;5.808;2023-02-01T16:13:54;11.40;;;4.23;;
62584;SDS011;48643;51.670;5.808;2023-02-01T16:16:20;15.55;;;5.25;;
62584;SDS011;48643;51.670;5.808;2023-02-01T16:18:47;14.90;;;5.35;;
62584;SDS011;48643;51.670;5.808;2023-02-01T16:21:14;16.17;;;5.93;;
62584;SDS011;48643;51.670;5.808;2023-02-01T16:23:41;20.48;;;5.55;;
62584;SDS011;48643;51.670;5.808;2023-02-01T16:26:08;15.35;;;5.70;;
62584;SDS011;48643;51.670;5.808;2023-02-01T16:28:34;15.35;;;5.88;;
62584;SDS011;48643;51.670;5.808;2023-02-01T16:31:01;17.00;;;4.97;;
62584;SDS011;48643;51.670;5.808;2023-02-01T16:33:28;14.50;;;5.35;;
62584;SDS011;48643;51.670;5.808;2023-02-01T16:35:55;15.15;;;5.45;;
62584;SDS011;48643;51.670;5.808;2023-02-01T16:38:27;13.30;;;5.03;;
62584;SDS011;48643;51.670;5.808;2023-02-01T16:40:53;13.50;;;4.60;;
62584;SDS011;48643;51.670;5.808;2023-02-01T16:43:21;13.13;;;4.32;;
62584;SDS011;48643;51.670;5.808;2023-02-01T16:45:50;15.90;;;4.47;;
62584;SDS011;48643;51.670;5.808;2023-02-01T16:48:22;12.85;;;4.63;;
62584;SDS011;48643;51.670;5.808;2023-02-01T16:50:54;11.55;;;4.30;;
62584;SDS011;48643;51.670;5.808;2023-02-01T16:53:24;16.35;;;4.90;;
62584;SDS011;48643;51.670;5.808;2023-02-01T16:55:52;10.90;;;4.43;;
62584;SDS011;48643;51.670;5.808;2023-02-01T16:58:19;11.38;;;4.25;;
62584;SDS011;48643;51.670;5.808;2023-02-01T17:00:47;9.85;;;4.15;;
62584;SDS011;48643;51.670;5.808;2023-02-01T17:03:14;13.15;;;4.32;;
62584;SDS011;48643;51.670;5.808;2023-02-01T17:05:46;9.68;;;3.83;;
62584;SDS011;48643;51.670;5.808;2023-02-01T17:08:16;10.32;;;4.00;;
62584;SDS011;48643;51.670;5.808;2023-02-01T17:10:45;9.15;;;3.70;;
62584;SDS011;48643;51.670;5.808;2023-02-01T17:13:12;12.18;;;4.18;;
62584;SDS011;48643;51.670;5.808;2023-02-01T17:15:53;17.23;;;4.95;;
62584;SDS011;48643;51.670;5.808;2023-02-01T17:18:28;16.08;;;4.68;;
62584;SDS011;48643;51.670;5.808;2023-02-01T17:20:59;14.48;;;4.45;;
62584;SDS011;48643;51.670;5.808;2023-02-01T17:23:27;10.52;;;3.90;;
62584;SDS011;48643;51.670;5.808;2023-02-01T17:25:54;13.15;;;3.55;;
62584;SDS011;48643;51.670;5.808;2023-02-01T17:28:22;13.13;;;3.65;;
62584;SDS011;48643;51.670;5.808;2023-02-01T17:30:49;9.73;;;4.03;;
62584;SDS011;48643;51.670;5.808;2023-02-01T17:33:18;11.70;;;3.35;;
62584;SDS011;48643;51.670;5.808;2023-02-01T17:35:48;10.88;;;3.78;;
62584;SDS011;48643;51.670;5.808;2023-02-01T17:38:15;10.02;;;3.25;;
62584;SDS011;48643;51.670;5.808;2023-02-01T17:40:42;8.77;;;3.15;;